sensor_id;sensor_type;location;lat;lon;timestamp;P1;durP1;ratioP1;P2;durP2;ratioP2
12814;SDS011;6472;52.328;13.070;2023-12-20T00:01:20;5.13;;;3.60;;
12814;SDS011;6472;52.328;13.070;2023-12-20T00:03:49;3.50;;;2.70;;
12814;SDS011;6472;52.328;13.070;2023-12-20T00:06:18;4.13;;;3.17;;
12814;SDS011;6472;52.328;13.070;2023-12-20T00:08:46;4.80;;;3.13;;
12814;SDS011;6472;52.328;13.070;2023-12-20T00:11:14;4.47;;;3.23;;
12814;SDS011;6472;52.328;13.070;2023-12-20T00:13:43;5.87;;;3.60;;
12814;SDS011;6472;52.328;13.070;2023-12-20T00:16:16;5.97;;;3.63;;
12814;SDS011;6472;52.328;13.070;2023-12-20T00:18:44;3.93;;;3.40;;
12814;SDS011;6472;52.328;13.070;2023-12-20T00:21:12;4.80;;;3.67;;
12814;SDS011;6472;52.328;13.070;2023-12-20T00:23:40;4.60;;;3.63;;
12814;SDS011;6472;52.328;13.070;2023-12-20T00:26:08;4.37;;;3.07;;
12814;SDS011;6472;52.328;13.070;2023-12-20T00:28:36;4.60;;;3.40;;
12814;SDS011;6472;52.328;13.070;2023-12-20T00:31:05;3.87;;;3.17;;
12814;SDS011;6472;52.328;13.070;2023-12-20T00:33:33;3.80;;;3.30;;
12814;SDS011;6472;52.328;13.070;2023-12-20T00:36:01;4.80;;;3.20;;
12814;SDS011;6472;52.328;13.070;2023-12-20T00:38:30;4.47;;;3.83;;
12814;SDS011;6472;52.328;13.070;2023-12-20T00:40:58;4.30;;;3.17;;
12814;SDS011;6472;52.328;13.070;2023-12-20T00:43:26;3.93;;;3.10;;
12814;SDS011;6472;52.328;13.070;2023-12-20T00:45:54;3.53;;;2.90;;
12814;SDS011;6472;52.328;13.070;2023-12-20T00:48:23;6.47;;;4.40;;
12814;SDS011;6472;52.328;13.070;2023-12-20T00:50:53;5.13;;;3.83;;
12814;SDS011;6472;52.328;13.070;2023-12-20T00:53:21;4.10;;;3.10;;
12814;SDS011;6472;52.328;13.070;2023-12-20T00:55:49;4.53;;;3.50;;
12814;SDS011;6472;52.328;13.070;2023-12-20T00:58:17;4.10;;;3.67;;
12814;SDS011;6472;52.328;13.070;2023-12-20T01:00:45;4.60;;;3.53;;
12814;SDS011;6472;52.328;13.070;2023-12-20T01:03:13;5.90;;;3.53;;
12814;SDS011;6472;52.328;13.070;2023-12-20T01:05:43;5.57;;;3.77;;
12814;SDS011;6472;52.328;13.070;2023-12-20T01:08:11;5.57;;;3.90;;
12814;SDS011;6472;52.328;13.070;2023-12-20T01:10:39;4.57;;;3.63;;
12814;SDS011;6472;52.328;13.070;2023-12-20T01:13:07;5.07;;;3.83;;
12814;SDS011;6472;52.328;13.070;2023-12-20T01:15:36;3.67;;;2.93;;
12814;SDS011;6472;52.328;13.070;2023-12-20T01:18:04;5.63;;;3.77;;
12814;SDS011;6472;52.328;13.070;2023-12-20T01:20:32;3.67;;;3.33;;
12814;SDS011;6472;52.328;13.070;2023-12-20T01:23:01;5.47;;;3.30;;
12814;SDS011;6472;52.328;13.070;2023-12-20T01:25:29;4.87;;;3.67;;
12814;SDS011;6472;52.328;13.070;2023-12-20T01:27:57;3.57;;;2.73;;
12814;SDS011;6472;52.328;13.070;2023-12-20T01:30:25;3.63;;;3.20;;
12814;SDS011;6472;52.328;13.070;2023-12-20T01:32:53;4.60;;;3.13;;
12814;SDS011;6472;52.328;13.070;2023-12-20T01:35:21;4.83;;;3.60;;
12814;SDS011;6472;52.328;13.070;2023-12-20T01:37:50;4.93;;;3.27;;
12814;SDS011;6472;52.328;13.070;2023-12-20T01:40:19;5.47;;;3.80;;
12814;SDS011;6472;52.328;13.070;2023-12-20T01:42:47;3.10;;;2.80;;
12814;SDS011;6472;52.328;13.070;2023-12-20T01:45:15;4.27;;;3.50;;
12814;SDS011;6472;52.328;13.070;2023-12-20T01:47:43;6.77;;;3.83;;
12814;SDS011;6472;52.328;13.070;2023-12-20T01:50:11;3.53;;;3.20;;
12814;SDS011;6472;52.328;13.070;2023-12-20T01:52:39;4.27;;;3.17;;
12814;SDS011;6472;52.328;13.070;2023-12-20T01:55:09;5.03;;;3.77;;
12814;SDS011;6472;52.328;13.070;2023-12-20T01:57:41;4.33;;;3.63;;
12814;SDS011;6472;52.328;13.070;2023-12-20T02:00:11;3.50;;;2.90;;
12814;SDS011;6472;52.328;13.070;2023-12-20T02:02:40;4.60;;;3.50;;
12814;SDS011;6472;52.328;13.070;2023-12-20T02:05:09;5.43;;;3.93;;
12814;SDS011;6472;52.328;13.070;2023-12-20T02:07:38;3.57;;;3.27;;
12814;SDS011;6472;52.328;13.070;2023-12-20T02:10:06;4.10;;;3.70;;
12814;SDS011;6472;52.328;13.070;2023-12-20T02:12:35;5.33;;;3.80;;
12814;SDS011;6472;52.328;13.070;2023-12-20T02:15:04;5.13;;;3.80;;
12814;SDS011;6472;52.328;13.070;2023-12-20T02:17:33;4.47;;;3.53;;
12814;SDS011;6472;52.328;13.070;2023-12-20T02:20:01;3.33;;;3.00;;
12814;SDS011;6472;52.328;13.070;2023-12-20T02:22:31;4.10;;;3.27;;
12814;SDS011;6472;52.328;13.070;2023-12-20T02:24:59;3.57;;;3.23;;
12814;SDS011;6472;52.328;13.070;2023-12-20T02:27:27;3.60;;;2.80;;
12814;SDS011;6472;52.328;13.070;2023-12-20T02:29:56;3.43;;;2.97;;
12814;SDS011;6472;52.328;13.070;2023-12-20T02:32:24;3.80;;;3.10;;
12814;SDS011;6472;52.328;13.070;2023-12-20T02:34:53;5.37;;;3.10;;
12814;SDS011;6472;52.328;13.070;2023-12-20T02:37:23;4.03;;;3.10;;
12814;SDS011;6472;52.328;13.070;2023-12-20T02:39:52;3.73;;;3.33;;
12814;SDS011;6472;52.328;13.070;2023-12-20T02:42:20;3.43;;;2.73;;
12814;SDS011;6472;52.328;13.070;2023-12-20T02:44:48;3.80;;;2.87;;
12814;SDS011;6472;52.328;13.070;2023-12-20T02:47:16;4.23;;;2.87;;
12814;SDS011;6472;52.328;13.070;2023-12-20T02:49:44;3.07;;;2.57;;
12814;SDS011;6472;52.328;13.070;2023-12-20T02:52:12;2.53;;;2.33;;
12814;SDS011;6472;52.328;13.070;2023-12-20T02:54:40;3.83;;;3.03;;
12814;SDS011;6472;52.328;13.070;2023-12-20T02:57:10;3.90;;;3.13;;
12814;SDS011;6472;52.328;13.070;2023-12-20T02:59:38;3.37;;;3.07;;
12814;SDS011;6472;52.328;13.070;2023-12-20T03:02:05;4.63;;;2.63;;
12814;SDS011;6472;52.328;13.070;2023-12-20T03:04:33;3.27;;;2.97;;
12814;SDS011;6472;52.328;13.070;2023-12-20T03:07:02;7.30;;;3.13;;
12814;SDS011;6472;52.328;13.070;2023-12-20T03:09:30;4.87;;;3.10;;
12814;SDS011;6472;52.328;13.070;2023-12-20T03:12:19;4.50;;;3.40;;
12814;SDS011;6472;52.328;13.070;2023-12-20T03:14:47;5.40;;;3.63;;
12814;SDS011;6472;52.328;13.070;2023-12-20T03:17:16;3.57;;;3.10;;
12814;SDS011;6472;52.328;13.070;2023-12-20T03:19:45;7.80;;;3.73;;
12814;SDS011;6472;52.328;13.070;2023-12-20T03:22:13;9.70;;;2.83;;
12814;SDS011;6472;52.328;13.070;2023-12-20T03:24:41;8.47;;;2.63;;
12814;SDS011;6472;52.328;13.070;2023-12-20T03:27:09;6.43;;;3.13;;
12814;SDS011;6472;52.328;13.070;2023-12-20T03:29:38;4.97;;;2.73;;
12814;SDS011;6472;52.328;13.070;2023-12-20T03:32:06;3.13;;;2.43;;
12814;SDS011;6472;52.328;13.070;2023-12-20T03:34:35;3.00;;;2.53;;
12814;SDS011;6472;52.328;13.070;2023-12-20T03:37:03;3.13;;;2.63;;
12814;SDS011;6472;52.328;13.070;2023-12-20T03:39:31;3.87;;;2.50;;
12814;SDS011;6472;52.328;13.070;2023-12-20T03:41:59;3.43;;;2.20;;
12814;SDS011;6472;52.328;13.070;2023-12-20T03:44:27;2.97;;;2.63;;
12814;SDS011;6472;52.328;13.070;2023-12-20T03:46:56;4.47;;;2.43;;
12814;SDS011;6472;52.328;13.070;2023-12-20T03:49:24;2.27;;;1.87;;
12814;SDS011;6472;52.328;13.070;2023-12-20T03:51:52;3.53;;;2.20;;
12814;SDS011;6472;52.328;13.070;2023-12-20T03:54:20;2.53;;;2.10;;
12814;SDS011;6472;52.328;13.070;2023-12-20T03:56:48;3.23;;;1.87;;
12814;SDS011;6472;52.328;13.070;2023-12-20T03:59:18;4.20;;;2.00;;
12814;SDS011;6472;52.328;13.070;2023-12-20T04:01:46;4.50;;;2.03;;
12814;SDS011;6472;52.328;13.070;2023-12-20T04:04:16;2.63;;;2.20;;
12814;SDS011;6472;52.328;13.070;2023-12-20T04:06:44;7.73;;;2.33;;
12814;SDS011;6472;52.328;13.070;2023-12-20T04:09:12;3.43;;;2.50;;
12814;SDS011;6472;52.328;13.070;2023-12-20T04:11:40;3.57;;;2.30;;
12814;SDS011;6472;52.328;13.070;2023-12-20T04:14:08;3.03;;;1.63;;
12814;SDS011;6472;52.328;13.070;2023-12-20T04:16:36;2.40;;;2.00;;
12814;SDS011;6472;52.328;13.070;2023-12-20T04:19:05;2.27;;;1.90;;
12814;SDS011;6472;52.328;13.070;2023-12-20T04:21:34;9.47;;;2.40;;
12814;SDS011;6472;52.328;13.070;2023-12-20T04:24:02;3.30;;;2.47;;
12814;SDS011;6472;52.328;13.070;2023-12-20T04:26:31;6.40;;;1.87;;
12814;SDS011;6472;52.328;13.070;2023-12-20T04:28:59;2.43;;;1.87;;
12814;SDS011;6472;52.328;13.070;2023-12-20T04:31:27;2.00;;;1.73;;
12814;SDS011;6472;52.328;13.070;2023-12-20T04:33:55;6.47;;;1.77;;
12814;SDS011;6472;52.328;13.070;2023-12-20T04:36:23;1.83;;;1.40;;
12814;SDS011;6472;52.328;13.070;2023-12-20T04:38:54;4.17;;;1.97;;
12814;SDS011;6472;52.328;13.070;2023-12-20T04:41:22;2.33;;;1.90;;
12814;SDS011;6472;52.328;13.070;2023-12-20T04:43:50;3.30;;;1.47;;
12814;SDS011;6472;52.328;13.070;2023-12-20T04:46:18;2.80;;;1.77;;
12814;SDS011;6472;52.328;13.070;2023-12-20T04:48:46;5.30;;;1.73;;
12814;SDS011;6472;52.328;13.070;2023-12-20T04:51:14;2.50;;;1.53;;
12814;SDS011;6472;52.328;13.070;2023-12-20T04:53:42;2.83;;;1.27;;
12814;SDS011;6472;52.328;13.070;2023-12-20T04:56:11;7.43;;;1.93;;
12814;SDS011;6472;52.328;13.070;2023-12-20T04:58:39;6.43;;;1.23;;
12814;SDS011;6472;52.328;13.070;2023-12-20T05:01:07;3.53;;;1.20;;
12814;SDS011;6472;52.328;13.070;2023-12-20T05:03:36;2.27;;;1.43;;
12814;SDS011;6472;52.328;13.070;2023-12-20T05:06:04;7.60;;;1.93;;
12814;SDS011;6472;52.328;13.070;2023-12-20T05:08:33;6.63;;;1.63;;
12814;SDS011;6472;52.328;13.070;2023-12-20T05:11:03;1.17;;;1.00;;
12814;SDS011;6472;52.328;13.070;2023-12-20T05:13:32;2.20;;;1.30;;
12814;SDS011;6472;52.328;13.070;2023-12-20T05:16:12;5.20;;;1.77;;
12814;SDS011;6472;52.328;13.070;2023-12-20T05:18:45;4.43;;;2.00;;
12814;SDS011;6472;52.328;13.070;2023-12-20T05:21:13;5.77;;;1.57;;
12814;SDS011;6472;52.328;13.070;2023-12-20T05:23:41;5.90;;;1.67;;
12814;SDS011;6472;52.328;13.070;2023-12-20T05:26:09;4.80;;;1.30;;
12814;SDS011;6472;52.328;13.070;2023-12-20T05:28:38;1.47;;;1.23;;
12814;SDS011;6472;52.328;13.070;2023-12-20T05:31:06;6.07;;;1.90;;
12814;SDS011;6472;52.328;13.070;2023-12-20T05:33:35;2.73;;;1.60;;
12814;SDS011;6472;52.328;13.070;2023-12-20T05:36:04;2.10;;;1.73;;
12814;SDS011;6472;52.328;13.070;2023-12-20T05:38:32;8.07;;;1.63;;
12814;SDS011;6472;52.328;13.070;2023-12-20T05:41:00;3.47;;;1.40;;
12814;SDS011;6472;52.328;13.070;2023-12-20T05:43:28;2.93;;;1.60;;
12814;SDS011;6472;52.328;13.070;2023-12-20T05:46:01;1.97;;;1.67;;
12814;SDS011;6472;52.328;13.070;2023-12-20T05:48:29;2.33;;;1.77;;
12814;SDS011;6472;52.328;13.070;2023-12-20T05:50:57;5.23;;;2.17;;
12814;SDS011;6472;52.328;13.070;2023-12-20T05:53:25;2.17;;;1.57;;
12814;SDS011;6472;52.328;13.070;2023-12-20T05:55:53;2.73;;;1.90;;
12814;SDS011;6472;52.328;13.070;2023-12-20T05:58:21;4.87;;;1.80;;
12814;SDS011;6472;52.328;13.070;2023-12-20T06:00:48;5.27;;;1.80;;
12814;SDS011;6472;52.328;13.070;2023-12-20T06:03:18;4.67;;;1.83;;
12814;SDS011;6472;52.328;13.070;2023-12-20T06:05:46;1.77;;;1.67;;
12814;SDS011;6472;52.328;13.070;2023-12-20T06:08:14;3.60;;;1.40;;
12814;SDS011;6472;52.328;13.070;2023-12-20T06:10:42;6.80;;;1.63;;
12814;SDS011;6472;52.328;13.070;2023-12-20T06:13:10;4.70;;;2.30;;
12814;SDS011;6472;52.328;13.070;2023-12-20T06:15:39;5.60;;;1.53;;
12814;SDS011;6472;52.328;13.070;2023-12-20T06:18:07;5.47;;;2.33;;
12814;SDS011;6472;52.328;13.070;2023-12-20T06:20:37;5.33;;;2.10;;
12814;SDS011;6472;52.328;13.070;2023-12-20T06:23:05;2.83;;;2.23;;
12814;SDS011;6472;52.328;13.070;2023-12-20T06:25:33;6.20;;;1.90;;
12814;SDS011;6472;52.328;13.070;2023-12-20T06:28:01;3.53;;;1.80;;
12814;SDS011;6472;52.328;13.070;2023-12-20T06:30:29;4.37;;;2.03;;
12814;SDS011;6472;52.328;13.070;2023-12-20T06:32:59;7.03;;;2.07;;
12814;SDS011;6472;52.328;13.070;2023-12-20T06:35:27;9.60;;;2.03;;
12814;SDS011;6472;52.328;13.070;2023-12-20T06:37:56;2.23;;;1.63;;
12814;SDS011;6472;52.328;13.070;2023-12-20T06:40:25;4.67;;;1.73;;
12814;SDS011;6472;52.328;13.070;2023-12-20T06:42:53;5.37;;;1.90;;
12814;SDS011;6472;52.328;13.070;2023-12-20T06:45:34;3.50;;;1.33;;
12814;SDS011;6472;52.328;13.070;2023-12-20T06:48:02;5.40;;;1.90;;
12814;SDS011;6472;52.328;13.070;2023-12-20T06:50:31;6.93;;;1.63;;
12814;SDS011;6472;52.328;13.070;2023-12-20T06:53:00;4.27;;;1.43;;
12814;SDS011;6472;52.328;13.070;2023-12-20T06:55:33;3.50;;;1.50;;
12814;SDS011;6472;52.328;13.070;2023-12-20T06:58:02;4.57;;;1.30;;
12814;SDS011;6472;52.328;13.070;2023-12-20T07:00:31;7.30;;;1.87;;
12814;SDS011;6472;52.328;13.070;2023-12-20T07:03:00;7.80;;;1.73;;
12814;SDS011;6472;52.328;13.070;2023-12-20T07:05:28;13.27;;;2.27;;
12814;SDS011;6472;52.328;13.070;2023-12-20T07:07:56;2.40;;;1.23;;
12814;SDS011;6472;52.328;13.070;2023-12-20T07:10:26;3.83;;;1.43;;
12814;SDS011;6472;52.328;13.070;2023-12-20T07:12:54;8.93;;;1.87;;
12814;SDS011;6472;52.328;13.070;2023-12-20T07:15:22;6.40;;;1.87;;
12814;SDS011;6472;52.328;13.070;2023-12-20T07:17:51;6.07;;;1.60;;
12814;SDS011;6472;52.328;13.070;2023-12-20T07:20:19;4.77;;;1.90;;
12814;SDS011;6472;52.328;13.070;2023-12-20T07:22:47;2.30;;;1.93;;
12814;SDS011;6472;52.328;13.070;2023-12-20T07:25:15;8.50;;;1.73;;
12814;SDS011;6472;52.328;13.070;2023-12-20T07:27:45;7.80;;;1.80;;
12814;SDS011;6472;52.328;13.070;2023-12-20T07:30:14;4.43;;;1.53;;
12814;SDS011;6472;52.328;13.070;2023-12-20T07:32:42;8.17;;;1.60;;
12814;SDS011;6472;52.328;13.070;2023-12-20T07:35:10;3.10;;;1.73;;
12814;SDS011;6472;52.328;13.070;2023-12-20T07:37:38;6.30;;;2.10;;
12814;SDS011;6472;52.328;13.070;2023-12-20T07:40:07;5.83;;;1.33;;
12814;SDS011;6472;52.328;13.070;2023-12-20T07:42:36;8.90;;;1.80;;
12814;SDS011;6472;52.328;13.070;2023-12-20T07:45:06;3.33;;;1.30;;
12814;SDS011;6472;52.328;13.070;2023-12-20T07:47:34;1.80;;;1.20;;
12814;SDS011;6472;52.328;13.070;2023-12-20T07:50:02;5.20;;;1.10;;
12814;SDS011;6472;52.328;13.070;2023-12-20T07:52:31;9.30;;;2.27;;
12814;SDS011;6472;52.328;13.070;2023-12-20T07:55:00;5.23;;;1.83;;
12814;SDS011;6472;52.328;13.070;2023-12-20T07:57:28;6.97;;;1.80;;
12814;SDS011;6472;52.328;13.070;2023-12-20T07:59:56;10.83;;;2.47;;
12814;SDS011;6472;52.328;13.070;2023-12-20T08:02:26;9.60;;;2.80;;
12814;SDS011;6472;52.328;13.070;2023-12-20T08:04:54;4.60;;;2.33;;
12814;SDS011;6472;52.328;13.070;2023-12-20T08:07:23;10.90;;;2.70;;
12814;SDS011;6472;52.328;13.070;2023-12-20T08:09:52;7.30;;;1.83;;
12814;SDS011;6472;52.328;13.070;2023-12-20T08:12:21;6.30;;;1.97;;
12814;SDS011;6472;52.328;13.070;2023-12-20T08:14:49;7.33;;;1.80;;
12814;SDS011;6472;52.328;13.070;2023-12-20T08:17:17;2.57;;;1.60;;
12814;SDS011;6472;52.328;13.070;2023-12-20T08:19:47;3.20;;;1.83;;
12814;SDS011;6472;52.328;13.070;2023-12-20T08:22:15;4.20;;;1.70;;
12814;SDS011;6472;52.328;13.070;2023-12-20T08:24:43;6.80;;;1.60;;
12814;SDS011;6472;52.328;13.070;2023-12-20T08:27:11;10.60;;;2.00;;
12814;SDS011;6472;52.328;13.070;2023-12-20T08:29:39;1.50;;;1.30;;
12814;SDS011;6472;52.328;13.070;2023-12-20T08:32:07;1.73;;;1.63;;
12814;SDS011;6472;52.328;13.070;2023-12-20T08:34:35;5.40;;;2.00;;
12814;SDS011;6472;52.328;13.070;2023-12-20T08:37:05;6.13;;;1.43;;
12814;SDS011;6472;52.328;13.070;2023-12-20T08:39:33;3.20;;;1.47;;
12814;SDS011;6472;52.328;13.070;2023-12-20T08:42:02;3.97;;;1.30;;
12814;SDS011;6472;52.328;13.070;2023-12-20T08:44:30;5.23;;;1.30;;
12814;SDS011;6472;52.328;13.070;2023-12-20T08:46:58;6.37;;;1.70;;
12814;SDS011;6472;52.328;13.070;2023-12-20T08:49:26;5.53;;;1.47;;
12814;SDS011;6472;52.328;13.070;2023-12-20T08:51:55;3.13;;;1.40;;
12814;SDS011;6472;52.328;13.070;2023-12-20T08:54:24;5.37;;;1.50;;
12814;SDS011;6472;52.328;13.070;2023-12-20T08:56:52;7.13;;;1.33;;
12814;SDS011;6472;52.328;13.070;2023-12-20T08:59:20;2.37;;;1.00;;
12814;SDS011;6472;52.328;13.070;2023-12-20T09:01:48;6.47;;;2.20;;
12814;SDS011;6472;52.328;13.070;2023-12-20T09:04:20;1.40;;;1.30;;
12814;SDS011;6472;52.328;13.070;2023-12-20T09:06:49;6.57;;;1.27;;
12814;SDS011;6472;52.328;13.070;2023-12-20T09:09:17;7.20;;;1.80;;
12814;SDS011;6472;52.328;13.070;2023-12-20T09:11:47;3.60;;;1.30;;
12814;SDS011;6472;52.328;13.070;2023-12-20T09:14:17;7.77;;;1.50;;
12814;SDS011;6472;52.328;13.070;2023-12-20T09:16:45;5.73;;;1.90;;
12814;SDS011;6472;52.328;13.070;2023-12-20T09:19:13;7.00;;;1.40;;
12814;SDS011;6472;52.328;13.070;2023-12-20T09:21:41;10.07;;;3.07;;
12814;SDS011;6472;52.328;13.070;2023-12-20T09:24:10;2.73;;;1.60;;
12814;SDS011;6472;52.328;13.070;2023-12-20T09:26:38;4.50;;;1.60;;
12814;SDS011;6472;52.328;13.070;2023-12-20T09:29:08;6.07;;;2.30;;
12814;SDS011;6472;52.328;13.070;2023-12-20T09:31:41;2.87;;;1.63;;
12814;SDS011;6472;52.328;13.070;2023-12-20T09:34:10;3.30;;;1.60;;
12814;SDS011;6472;52.328;13.070;2023-12-20T09:36:38;7.50;;;1.80;;
12814;SDS011;6472;52.328;13.070;2023-12-20T09:39:12;4.40;;;2.00;;
12814;SDS011;6472;52.328;13.070;2023-12-20T09:41:42;4.47;;;1.40;;
12814;SDS011;6472;52.328;13.070;2023-12-20T09:44:14;2.60;;;1.47;;
12814;SDS011;6472;52.328;13.070;2023-12-20T09:46:44;1.73;;;1.50;;
12814;SDS011;6472;52.328;13.070;2023-12-20T09:49:17;2.93;;;1.20;;
12814;SDS011;6472;52.328;13.070;2023-12-20T09:51:46;4.33;;;1.40;;
12814;SDS011;6472;52.328;13.070;2023-12-20T09:54:14;1.10;;;1.10;;
12814;SDS011;6472;52.328;13.070;2023-12-20T09:56:44;2.67;;;1.27;;
12814;SDS011;6472;52.328;13.070;2023-12-20T09:59:14;6.43;;;1.73;;
12814;SDS011;6472;52.328;13.070;2023-12-20T10:01:43;2.53;;;1.43;;
12814;SDS011;6472;52.328;13.070;2023-12-20T10:04:12;3.23;;;1.47;;
12814;SDS011;6472;52.328;13.070;2023-12-20T10:06:55;5.47;;;2.13;;
12814;SDS011;6472;52.328;13.070;2023-12-20T10:09:24;7.17;;;2.07;;
12814;SDS011;6472;52.328;13.070;2023-12-20T10:11:54;10.00;;;2.10;;
12814;SDS011;6472;52.328;13.070;2023-12-20T10:14:25;2.53;;;1.60;;
12814;SDS011;6472;52.328;13.070;2023-12-20T10:16:53;5.07;;;2.37;;
12814;SDS011;6472;52.328;13.070;2023-12-20T10:19:22;19.30;;;2.40;;
12814;SDS011;6472;52.328;13.070;2023-12-20T10:21:50;3.23;;;1.70;;
12814;SDS011;6472;52.328;13.070;2023-12-20T10:24:18;4.93;;;1.80;;
12814;SDS011;6472;52.328;13.070;2023-12-20T10:26:48;6.00;;;1.83;;
12814;SDS011;6472;52.328;13.070;2023-12-20T10:29:34;8.40;;;1.93;;
12814;SDS011;6472;52.328;13.070;2023-12-20T10:32:21;4.40;;;1.97;;
12814;SDS011;6472;52.328;13.070;2023-12-20T10:34:50;4.10;;;1.70;;
12814;SDS011;6472;52.328;13.070;2023-12-20T10:37:19;6.33;;;2.40;;
12814;SDS011;6472;52.328;13.070;2023-12-20T10:40:15;2.87;;;1.60;;
12814;SDS011;6472;52.328;13.070;2023-12-20T10:42:44;3.03;;;2.17;;
12814;SDS011;6472;52.328;13.070;2023-12-20T10:45:15;6.93;;;1.83;;
12814;SDS011;6472;52.328;13.070;2023-12-20T10:47:44;7.60;;;1.90;;
12814;SDS011;6472;52.328;13.070;2023-12-20T10:50:14;4.67;;;1.70;;
12814;SDS011;6472;52.328;13.070;2023-12-20T10:52:42;2.87;;;1.60;;
12814;SDS011;6472;52.328;13.070;2023-12-20T10:55:13;7.50;;;2.07;;
12814;SDS011;6472;52.328;13.070;2023-12-20T10:57:41;5.80;;;1.80;;
12814;SDS011;6472;52.328;13.070;2023-12-20T11:00:10;3.93;;;1.53;;
12814;SDS011;6472;52.328;13.070;2023-12-20T11:02:43;4.63;;;1.63;;
12814;SDS011;6472;52.328;13.070;2023-12-20T11:05:13;4.87;;;1.93;;
12814;SDS011;6472;52.328;13.070;2023-12-20T11:07:50;8.83;;;2.10;;
12814;SDS011;6472;52.328;13.070;2023-12-20T11:10:25;11.30;;;2.57;;
12814;SDS011;6472;52.328;13.070;2023-12-20T11:12:58;5.03;;;1.60;;
12814;SDS011;6472;52.328;13.070;2023-12-20T11:15:40;2.77;;;1.60;;
12814;SDS011;6472;52.328;13.070;2023-12-20T11:18:08;3.67;;;1.47;;
12814;SDS011;6472;52.328;13.070;2023-12-20T11:20:37;4.83;;;1.97;;
12814;SDS011;6472;52.328;13.070;2023-12-20T11:23:06;5.40;;;1.83;;
12814;SDS011;6472;52.328;13.070;2023-12-20T11:25:47;5.00;;;1.90;;
12814;SDS011;6472;52.328;13.070;2023-12-20T11:28:16;4.07;;;1.37;;
12814;SDS011;6472;52.328;13.070;2023-12-20T11:30:51;8.37;;;2.67;;
12814;SDS011;6472;52.328;13.070;2023-12-20T11:33:21;5.57;;;1.60;;
12814;SDS011;6472;52.328;13.070;2023-12-20T11:35:55;2.23;;;1.80;;
12814;SDS011;6472;52.328;13.070;2023-12-20T11:38:24;6.83;;;1.73;;
12814;SDS011;6472;52.328;13.070;2023-12-20T11:40:53;4.10;;;1.60;;
12814;SDS011;6472;52.328;13.070;2023-12-20T11:43:31;8.80;;;1.93;;
12814;SDS011;6472;52.328;13.070;2023-12-20T11:46:04;4.20;;;1.67;;
12814;SDS011;6472;52.328;13.070;2023-12-20T11:48:34;4.00;;;1.40;;
12814;SDS011;6472;52.328;13.070;2023-12-20T11:51:08;5.20;;;2.03;;
12814;SDS011;6472;52.328;13.070;2023-12-20T11:53:37;2.57;;;1.40;;
12814;SDS011;6472;52.328;13.070;2023-12-20T11:56:05;4.27;;;1.83;;
12814;SDS011;6472;52.328;13.070;2023-12-20T11:58:34;6.43;;;1.50;;
12814;SDS011;6472;52.328;13.070;2023-12-20T12:01:03;3.13;;;1.30;;
12814;SDS011;6472;52.328;13.070;2023-12-20T12:03:34;2.00;;;1.50;;
12814;SDS011;6472;52.328;13.070;2023-12-20T12:06:03;5.30;;;1.40;;
12814;SDS011;6472;52.328;13.070;2023-12-20T12:08:32;3.80;;;1.43;;
12814;SDS011;6472;52.328;13.070;2023-12-20T12:11:00;2.17;;;1.37;;
12814;SDS011;6472;52.328;13.070;2023-12-20T12:13:28;5.70;;;1.80;;
12814;SDS011;6472;52.328;13.070;2023-12-20T12:15:57;5.60;;;2.00;;
12814;SDS011;6472;52.328;13.070;2023-12-20T12:18:28;3.53;;;2.07;;
12814;SDS011;6472;52.328;13.070;2023-12-20T12:21:00;5.33;;;1.77;;
12814;SDS011;6472;52.328;13.070;2023-12-20T12:23:28;5.77;;;2.10;;
12814;SDS011;6472;52.328;13.070;2023-12-20T12:25:56;2.97;;;1.80;;
12814;SDS011;6472;52.328;13.070;2023-12-20T12:28:25;5.10;;;2.03;;
12814;SDS011;6472;52.328;13.070;2023-12-20T12:30:56;4.63;;;1.80;;
12814;SDS011;6472;52.328;13.070;2023-12-20T12:33:27;4.87;;;1.87;;
12814;SDS011;6472;52.328;13.070;2023-12-20T12:35:56;3.17;;;1.70;;
12814;SDS011;6472;52.328;13.070;2023-12-20T12:38:24;1.67;;;1.57;;
12814;SDS011;6472;52.328;13.070;2023-12-20T12:40:52;3.23;;;1.40;;
12814;SDS011;6472;52.328;13.070;2023-12-20T12:43:22;6.20;;;2.67;;
12814;SDS011;6472;52.328;13.070;2023-12-20T12:45:50;2.50;;;1.40;;
12814;SDS011;6472;52.328;13.070;2023-12-20T12:48:19;3.87;;;2.20;;
12814;SDS011;6472;52.328;13.070;2023-12-20T12:50:49;5.33;;;2.10;;
12814;SDS011;6472;52.328;13.070;2023-12-20T12:53:18;9.10;;;2.53;;
12814;SDS011;6472;52.328;13.070;2023-12-20T12:55:46;4.43;;;1.80;;
12814;SDS011;6472;52.328;13.070;2023-12-20T12:58:14;4.07;;;1.30;;
12814;SDS011;6472;52.328;13.070;2023-12-20T13:00:42;3.33;;;1.57;;
12814;SDS011;6472;52.328;13.070;2023-12-20T13:03:11;6.10;;;2.00;;
12814;SDS011;6472;52.328;13.070;2023-12-20T13:05:39;3.77;;;1.77;;
12814;SDS011;6472;52.328;13.070;2023-12-20T13:08:12;3.23;;;2.07;;
12814;SDS011;6472;52.328;13.070;2023-12-20T13:10:41;8.10;;;2.03;;
12814;SDS011;6472;52.328;13.070;2023-12-20T13:13:09;4.97;;;2.23;;
12814;SDS011;6472;52.328;13.070;2023-12-20T13:15:37;1.23;;;1.20;;
12814;SDS011;6472;52.328;13.070;2023-12-20T13:18:05;1.67;;;1.57;;
12814;SDS011;6472;52.328;13.070;2023-12-20T13:20:34;4.43;;;1.90;;
12814;SDS011;6472;52.328;13.070;2023-12-20T13:23:02;4.80;;;1.70;;
12814;SDS011;6472;52.328;13.070;2023-12-20T13:25:31;3.43;;;1.53;;
12814;SDS011;6472;52.328;13.070;2023-12-20T13:28:00;2.90;;;1.50;;
12814;SDS011;6472;52.328;13.070;2023-12-20T13:30:29;5.10;;;2.40;;
12814;SDS011;6472;52.328;13.070;2023-12-20T13:33:08;1.10;;;1.00;;
12814;SDS011;6472;52.328;13.070;2023-12-20T13:35:36;3.10;;;0.87;;
12814;SDS011;6472;52.328;13.070;2023-12-20T13:38:05;0.63;;;0.63;;
12814;SDS011;6472;52.328;13.070;2023-12-20T13:40:35;0.50;;;0.50;;
12814;SDS011;6472;52.328;13.070;2023-12-20T13:43:03;1.23;;;0.77;;
12814;SDS011;6472;52.328;13.070;2023-12-20T13:45:32;0.93;;;0.50;;
12814;SDS011;6472;52.328;13.070;2023-12-20T13:48:00;0.73;;;0.60;;
12814;SDS011;6472;52.328;13.070;2023-12-20T13:50:30;0.83;;;0.47;;
12814;SDS011;6472;52.328;13.070;2023-12-20T13:52:58;1.53;;;0.50;;
12814;SDS011;6472;52.328;13.070;2023-12-20T13:55:27;1.33;;;0.77;;
12814;SDS011;6472;52.328;13.070;2023-12-20T13:57:57;2.03;;;0.53;;
12814;SDS011;6472;52.328;13.070;2023-12-20T14:00:25;3.03;;;0.90;;
12814;SDS011;6472;52.328;13.070;2023-12-20T14:02:53;0.97;;;0.80;;
12814;SDS011;6472;52.328;13.070;2023-12-20T14:05:23;1.70;;;0.63;;
12814;SDS011;6472;52.328;13.070;2023-12-20T14:07:54;1.20;;;0.80;;
12814;SDS011;6472;52.328;13.070;2023-12-20T14:10:24;2.20;;;1.07;;
12814;SDS011;6472;52.328;13.070;2023-12-20T14:12:53;2.20;;;0.80;;
12814;SDS011;6472;52.328;13.070;2023-12-20T14:15:23;1.37;;;1.17;;
12814;SDS011;6472;52.328;13.070;2023-12-20T14:17:52;1.13;;;1.00;;
12814;SDS011;6472;52.328;13.070;2023-12-20T14:20:21;1.10;;;1.10;;
12814;SDS011;6472;52.328;13.070;2023-12-20T14:22:49;1.00;;;0.90;;
12814;SDS011;6472;52.328;13.070;2023-12-20T14:25:18;1.07;;;1.00;;
12814;SDS011;6472;52.328;13.070;2023-12-20T14:27:46;1.10;;;0.80;;
12814;SDS011;6472;52.328;13.070;2023-12-20T14:30:14;3.40;;;1.00;;
12814;SDS011;6472;52.328;13.070;2023-12-20T14:32:45;2.73;;;0.90;;
12814;SDS011;6472;52.328;13.070;2023-12-20T14:35:16;3.37;;;1.23;;
12814;SDS011;6472;52.328;13.070;2023-12-20T14:37:46;1.00;;;0.73;;
12814;SDS011;6472;52.328;13.070;2023-12-20T14:40:14;0.80;;;0.80;;
12814;SDS011;6472;52.328;13.070;2023-12-20T14:42:43;2.80;;;1.10;;
12814;SDS011;6472;52.328;13.070;2023-12-20T14:45:12;0.80;;;0.70;;
12814;SDS011;6472;52.328;13.070;2023-12-20T14:47:48;3.90;;;1.13;;
12814;SDS011;6472;52.328;13.070;2023-12-20T14:50:19;1.20;;;1.00;;
12814;SDS011;6472;52.328;13.070;2023-12-20T14:52:48;1.77;;;0.87;;
12814;SDS011;6472;52.328;13.070;2023-12-20T14:55:16;2.03;;;0.97;;
12814;SDS011;6472;52.328;13.070;2023-12-20T14:57:44;4.63;;;1.23;;
12814;SDS011;6472;52.328;13.070;2023-12-20T15:00:13;3.70;;;1.30;;